KRNO

Reno-Tahoe International Airport

Airport
ICAO code
KRNO
Summary
ICAO Region
NAM
ICAO Territory
Location

Reno, Nevada,

Coordinates
39° 30' 21" N , 119° 46' 30" W
KCC
Airport LOS
Parallel Runway Operation
Airport RE
Hot and High Operations
Airport WX
Cumulonimbus
Metar
KRNO 142355Z 28019G28KT 10SM BKN040 OVC080 10/M03 A2995 RMK AO2 PK WND 30032/2317 SLP128 SH VC T01001028 10133 20089 53001

Description

Reno–Tahoe International Airport is a joint use civil-military (ANG) airport located 6 km) southeast of downtown Reno, in Washoe County, Nevada.

Climatology

Hot, semi-arid/Steppe climate (Köppen climate classification BSh) - hot, sometimes extremely hot summers and mild to warm winters, with low annual precipitation. Severe thunderstorms are common

Runways

Designator Length Width Surface Rops
7/25 1860 46 CON Yes/Yes
16L/34R 2743 46 CON Yes/Yes
16R/34L 3353 46 CON Yes/Yes

Airport map

Aerial View

SKYbrary Partners:

Safety knowledge contributed by: